createdAt,value
2022-09-16T00:01:53.249Z,14.27
2022-09-16T00:04:42.093Z,14.38
2022-09-16T00:07:39.398Z,14.57
2022-09-16T00:10:27.646Z,14.43
2022-09-16T00:13:26.379Z,14.43
2022-09-16T00:16:19.775Z,14.22
2022-09-16T00:19:08.126Z,14.37
2022-09-16T00:22:02.818Z,14.44
2022-09-16T00:24:51.208Z,14.56
2022-09-16T00:27:39.542Z,14.47
2022-09-16T00:30:29.238Z,14.42
2022-09-16T00:33:17.825Z,14.33
2022-09-16T00:36:08.317Z,14.38
2022-09-16T00:38:57.118Z,14.79
2022-09-16T00:41:45.517Z,14.72
2022-09-16T00:44:58.375Z,14.39
2022-09-16T00:47:52.124Z,14.45
2022-09-16T00:50:45.186Z,14.65
2022-09-16T00:53:43.026Z,14.54
2022-09-16T00:56:35.720Z,14.63
2022-09-16T00:59:28.760Z,14.55
2022-09-16T01:02:20.246Z,14.41
2022-09-16T01:05:13.587Z,14.48
2022-09-16T01:08:02.414Z,14.26
2022-09-16T01:10:59.848Z,14.20
2022-09-16T01:13:50.072Z,14.30
2022-09-16T01:16:58.228Z,14.08
2022-09-16T01:20:04.360Z,14.45
2022-09-16T01:23:12.444Z,14.30
2022-09-16T01:26:17.626Z,14.11
2022-09-16T01:29:27.331Z,14.17
2022-09-16T01:32:25.551Z,14.18
2022-09-16T01:35:24.798Z,13.99
2022-09-16T01:38:26.825Z,14.39
2022-09-16T01:41:23.231Z,14.24
2022-09-16T01:44:20.678Z,14.46
2022-09-16T01:47:18.649Z,14.54
2022-09-16T01:50:18.125Z,14.44
2022-09-16T01:53:14.139Z,14.22
2022-09-16T01:56:09.941Z,14.38
2022-09-16T01:59:06.872Z,14.41
2022-09-16T02:01:58.402Z,14.48
2022-09-16T02:04:51.687Z,14.36
2022-09-16T02:07:45.395Z,14.23
2022-09-16T02:10:40.759Z,14.42
2022-09-16T02:13:33.687Z,14.38
2022-09-16T02:16:30.084Z,13.99
2022-09-16T02:19:24.465Z,14.41
2022-09-16T02:22:15.203Z,14.28
2022-09-16T02:25:08.742Z,14.15
2022-09-16T02:27:59.048Z,14.31
2022-09-16T02:30:57.478Z,14.51
2022-09-16T02:33:48.988Z,14.49
2022-09-16T02:36:40.661Z,14.47
2022-09-16T02:39:32.161Z,14.31
2022-09-16T02:42:22.346Z,14.50
2022-09-16T02:45:20.778Z,14.38
2022-09-16T02:48:15.386Z,14.44
2022-09-16T02:51:16.708Z,14.20
2022-09-16T02:54:13.387Z,14.05
2022-09-16T02:57:01.707Z,14.40
2022-09-16T02:59:51.888Z,14.40
2022-09-16T03:02:40.977Z,14.71
2022-09-16T03:05:29.914Z,14.74
2022-09-16T03:08:18.213Z,15.05
2022-09-16T03:11:12.242Z,14.55
2022-09-16T03:14:13.575Z,14.48
2022-09-16T03:17:16.009Z,14.86
2022-09-16T03:20:12.177Z,14.74
2022-09-16T03:23:10.864Z,14.18
2022-09-16T03:26:04.650Z,14.36
2022-09-16T03:29:04.499Z,14.40
2022-09-16T03:31:59.122Z,14.65
2022-09-16T03:34:54.259Z,14.58
2022-09-16T03:37:45.423Z,14.33
2022-09-16T03:40:34.865Z,14.36
2022-09-16T03:43:32.298Z,14.38
2022-09-16T03:46:20.667Z,14.18
2022-09-16T03:49:18.225Z,14.45
2022-09-16T03:52:08.554Z,14.41
2022-09-16T03:55:03.110Z,14.32
2022-09-16T03:57:51.449Z,14.49
2022-09-16T04:00:50.853Z,14.31
2022-09-16T04:03:39.150Z,14.46
2022-09-16T04:06:27.524Z,14.15
2022-09-16T04:09:17.220Z,14.37
2022-09-16T04:12:07.815Z,14.20
2022-09-16T04:14:56.353Z,14.37
2022-09-16T04:17:45.020Z,14.22
2022-09-16T04:20:34.838Z,13.95
2022-09-16T04:23:24.947Z,13.92
2022-09-16T04:26:14.643Z,13.54
2022-09-16T04:29:09.350Z,13.52
2022-09-16T04:31:57.680Z,13.59
2022-09-16T04:34:51.905Z,13.65
2022-09-16T04:37:40.219Z,13.61
2022-09-16T04:40:28.716Z,13.62
2022-09-16T04:43:27.768Z,13.14
2022-09-16T04:46:16.090Z,13.08
2022-09-16T04:49:04.936Z,13.17
2022-09-16T04:51:59.650Z,13.35
2022-09-16T04:54:47.987Z,13.41
2022-09-16T04:57:42.753Z,13.46
2022-09-16T05:00:32.342Z,13.68
2022-09-16T05:03:27.010Z,13.37
2022-09-16T05:06:20.650Z,13.74
2022-09-16T05:09:10.999Z,13.62
2022-09-16T05:11:59.380Z,13.62
2022-09-16T05:14:47.950Z,13.78
2022-09-16T05:17:50.971Z,14.01
2022-09-16T05:20:40.011Z,13.89
2022-09-16T05:23:28.715Z,14.20
2022-09-16T05:26:19.469Z,14.43
2022-09-16T05:29:10.270Z,14.73
2022-09-16T05:31:59.136Z,14.63
2022-09-16T05:34:50.617Z,15.01
2022-09-16T05:37:38.932Z,14.71
2022-09-16T05:40:27.715Z,14.88
2022-09-16T05:43:25.154Z,14.45
2022-09-16T05:46:18.970Z,14.79
2022-09-16T05:49:07.428Z,14.76
2022-09-16T05:51:57.062Z,15.20
2022-09-16T05:54:45.324Z,14.64
2022-09-16T05:57:33.667Z,14.86
2022-09-16T06:00:22.978Z,14.91
2022-09-16T06:03:20.276Z,14.91
2022-09-16T06:06:14.347Z,14.46
2022-09-16T06:09:07.332Z,14.99
2022-09-16T06:12:01.481Z,14.73
2022-09-16T06:14:50.387Z,15.26
2022-09-16T06:17:38.689Z,14.96
2022-09-16T06:20:37.663Z,15.18
2022-09-16T06:23:26.399Z,14.59
2022-09-16T06:26:27.256Z,14.82
2022-09-16T06:29:16.783Z,14.58
2022-09-16T06:32:05.182Z,15.37
2022-09-16T06:34:53.574Z,15.28
2022-09-16T06:37:41.910Z,14.83
2022-09-16T07:48:16.417Z,17.11
2022-09-16T07:51:07.679Z,16.41
2022-09-16T07:53:59.414Z,17.40
2022-09-16T07:56:47.814Z,17.04
2022-09-16T07:59:45.069Z,17.56
2022-09-16T08:02:33.412Z,16.69
2022-09-16T08:05:32.459Z,16.94
2022-09-16T08:08:20.803Z,16.58
2022-09-16T08:11:18.093Z,16.46
2022-09-16T08:14:06.373Z,15.93
2022-09-16T08:17:03.545Z,16.66
2022-09-16T08:19:51.950Z,16.67
2022-09-16T08:22:51.955Z,17.22
2022-09-16T08:25:43.450Z,17.38
2022-09-16T08:28:57.640Z,16.16
2022-09-16T08:31:51.030Z,16.19
2022-09-16T08:34:49.328Z,15.69
2022-09-16T08:37:37.648Z,15.78
2022-09-16T08:40:34.426Z,16.21
2022-09-16T08:43:30.384Z,15.78
2022-09-16T08:46:25.670Z,16.07
2022-09-16T08:49:22.731Z,15.98
2022-09-16T08:52:14.451Z,16.35
2022-09-16T08:55:08.013Z,16.60
2022-09-16T08:58:06.188Z,16.53
2022-09-16T09:00:58.414Z,16.54
2022-09-16T09:03:49.115Z,16.17
2022-09-16T09:06:58.130Z,16.50
2022-09-16T09:09:56.102Z,15.92
2022-09-16T09:12:50.555Z,15.72
2022-09-16T09:15:46.070Z,16.60
2022-09-16T09:18:42.057Z,15.47
2022-09-16T09:21:40.292Z,16.05
2022-09-16T09:24:42.208Z,16.53
2022-09-16T09:27:38.305Z,17.03
2022-09-16T09:30:27.957Z,16.77
2022-09-16T09:36:53.767Z,16.62
2022-09-16T09:39:53.541Z,16.61
2022-09-16T09:42:50.034Z,16.10
2022-09-16T09:45:41.868Z,16.24
2022-09-16T09:48:36.734Z,16.76
2022-09-16T09:51:29.695Z,16.82
2022-09-16T09:54:27.879Z,17.43
2022-09-16T09:57:23.170Z,16.71
2022-09-16T10:00:16.273Z,16.85
2022-09-16T10:03:12.283Z,17.28
2022-09-16T10:06:02.219Z,17.50
2022-09-16T10:08:52.746Z,17.37
2022-09-16T10:11:48.827Z,17.33
2022-09-16T10:14:39.166Z,17.48
2022-09-16T10:17:34.799Z,17.47
2022-09-16T10:20:28.416Z,17.47
2022-09-16T10:23:29.691Z,17.87
2022-09-16T10:26:21.509Z,18.19
2022-09-16T10:29:17.837Z,18.52
2022-09-16T10:32:10.798Z,18.15
2022-09-16T10:34:59.232Z,17.97
2022-09-16T10:37:53.108Z,17.45
2022-09-16T10:40:52.956Z,17.73
2022-09-16T10:43:49.170Z,17.22
2022-09-16T10:46:38.033Z,17.85
2022-09-16T10:49:34.008Z,17.24
2022-09-16T10:52:25.228Z,17.45
2022-09-16T10:55:24.210Z,17.25
2022-09-16T10:58:18.250Z,17.56
2022-09-16T11:01:21.233Z,17.87
2022-09-16T11:04:40.252Z,17.48
2022-09-16T11:07:46.650Z,18.54
2022-09-16T11:10:45.379Z,18.32
2022-09-16T11:13:44.410Z,17.94
2022-09-16T11:16:50.198Z,17.87
2022-09-16T11:19:49.522Z,17.66
2022-09-16T11:22:46.688Z,16.98
2022-09-16T11:25:43.112Z,17.17
2022-09-16T11:29:10.967Z,18.34
2022-09-16T11:32:11.160Z,18.60
2022-09-16T11:35:24.115Z,17.77
2022-09-16T11:38:22.778Z,17.66
2022-09-16T11:41:25.022Z,17.63
2022-09-16T11:44:36.926Z,17.06
2022-09-16T11:47:43.236Z,16.57
2022-09-16T11:50:42.478Z,16.87
2022-09-16T11:53:51.672Z,16.43
2022-09-16T11:56:46.038Z,17.12
2022-09-16T11:59:41.148Z,17.25
2022-09-16T12:02:37.388Z,17.18
2022-09-16T12:05:31.464Z,16.45
2022-09-16T12:08:23.961Z,16.58
2022-09-16T12:11:21.256Z,16.96
2022-09-16T12:14:18.290Z,17.14
2022-09-16T12:17:13.360Z,16.83
2022-09-16T12:20:07.105Z,15.85
2022-09-16T12:23:00.251Z,15.40
2022-09-16T12:26:02.575Z,14.54
2022-09-16T12:29:01.337Z,13.59
2022-09-16T12:31:54.978Z,13.41
2022-09-16T12:34:49.405Z,13.31
2022-09-16T12:37:45.011Z,13.24
2022-09-16T12:40:45.750Z,12.77
2022-09-16T12:44:06.464Z,13.05
2022-09-16T12:47:45.787Z,13.30
2022-09-16T12:50:56.248Z,13.28
2022-09-16T12:53:55.381Z,13.46
2022-09-16T12:57:15.201Z,13.63
2022-09-16T13:00:13.020Z,13.94
2022-09-16T13:03:08.257Z,13.98
2022-09-16T13:06:01.298Z,14.14
2022-09-16T13:08:49.970Z,14.05
2022-09-16T13:14:53.322Z,14.18
2022-09-16T13:17:41.837Z,14.23
2022-09-16T13:20:39.543Z,14.35
2022-09-16T13:23:34.097Z,14.50
2022-09-16T13:26:22.478Z,14.06
2022-09-16T13:29:30.947Z,14.39
2022-09-16T13:32:37.782Z,14.18
2022-09-16T13:35:40.956Z,14.36
2022-09-16T13:38:40.209Z,14.10
2022-09-16T13:41:37.130Z,14.27
2022-09-16T13:44:31.848Z,14.24
2022-09-16T13:47:34.399Z,14.46
2022-09-16T13:50:26.526Z,14.74
2022-09-16T13:53:25.674Z,15.12
2022-09-16T13:56:37.322Z,15.03
2022-09-16T13:59:39.648Z,14.97
2022-09-16T14:02:40.801Z,14.92
2022-09-16T14:05:44.976Z,15.21
2022-09-16T14:08:43.468Z,14.98
2022-09-16T14:11:42.732Z,15.28
2022-09-16T14:14:50.105Z,15.60
2022-09-16T14:17:42.048Z,15.57
2022-09-16T14:20:30.788Z,15.81
2022-09-16T14:23:27.494Z,16.23
2022-09-16T14:26:18.919Z,16.17
2022-09-16T14:29:12.454Z,16.29
2022-09-16T14:32:01.117Z,17.45
2022-09-16T14:34:52.831Z,17.94
2022-09-16T14:37:41.438Z,17.98
2022-09-16T14:40:30.655Z,18.78
2022-09-16T14:43:21.766Z,18.40
2022-09-16T14:46:11.488Z,18.74
2022-09-16T14:49:00.013Z,18.94
2022-09-16T14:51:58.403Z,18.97
2022-09-16T14:54:46.976Z,18.67
2022-09-16T14:57:35.475Z,18.63
2022-09-16T15:00:25.617Z,18.62
2022-09-16T15:03:26.762Z,19.25
2022-09-16T15:06:19.310Z,17.46
2022-09-16T15:09:17.894Z,17.51
2022-09-16T15:12:07.118Z,17.69
2022-09-16T15:14:55.457Z,17.52
2022-09-16T15:17:43.911Z,17.70
2022-09-16T15:20:37.799Z,17.53
2022-09-16T15:23:28.351Z,17.58
2022-09-16T15:26:19.604Z,16.93
2022-09-16T15:32:18.320Z,18.14
2022-09-16T15:35:20.749Z,18.04
2022-09-16T15:38:13.919Z,17.98
2022-09-16T15:41:04.282Z,17.70
2022-09-16T15:44:01.099Z,17.71
2022-09-16T15:46:50.674Z,17.53
2022-09-16T15:49:41.210Z,17.52
2022-09-16T15:52:29.844Z,17.14
2022-09-16T15:55:31.049Z,16.78
2022-09-16T15:58:39.691Z,16.93
2022-09-16T16:01:50.986Z,17.34
2022-09-16T16:04:41.629Z,16.99
2022-09-16T16:07:42.138Z,17.34
2022-09-16T16:10:34.696Z,17.13
2022-09-16T16:13:23.044Z,16.74
2022-09-16T16:16:13.026Z,16.67
2022-09-16T16:19:01.991Z,16.17
2022-09-16T16:22:00.379Z,15.61
2022-09-16T16:24:48.645Z,15.35
2022-09-16T16:27:47.702Z,15.11
2022-09-16T16:30:36.090Z,14.87
2022-09-16T16:33:24.374Z,14.87
2022-09-16T16:36:20.510Z,15.47
2022-09-16T16:39:08.874Z,14.90
2022-09-16T16:42:05.095Z,14.78
2022-09-16T16:44:56.559Z,15.16
2022-09-16T16:47:46.381Z,15.59
2022-09-16T16:50:34.816Z,15.29
2022-09-16T16:53:23.130Z,15.51
2022-09-16T16:56:17.377Z,15.00
2022-09-16T16:59:05.726Z,15.12
2022-09-16T17:02:01.279Z,14.91
2022-09-16T17:04:49.878Z,15.33
2022-09-16T17:07:44.199Z,15.03
2022-09-16T17:10:32.518Z,14.63
2022-09-16T17:13:26.709Z,14.63
2022-09-16T17:16:17.695Z,14.71
2022-09-16T17:19:07.431Z,14.68
2022-09-16T17:22:04.526Z,14.80
2022-09-16T17:24:52.858Z,15.04
2022-09-16T17:27:41.152Z,14.69
2022-09-16T17:30:29.500Z,14.58
2022-09-16T17:33:26.635Z,14.72
2022-09-16T17:36:18.484Z,14.73
2022-09-16T17:39:09.086Z,14.85
2022-09-16T17:41:58.099Z,14.51
2022-09-16T17:44:55.194Z,14.67
2022-09-16T17:47:43.580Z,14.55
2022-09-16T17:50:31.911Z,14.79
2022-09-16T17:53:30.777Z,14.54
2022-09-16T17:56:19.369Z,14.37
2022-09-16T17:59:19.231Z,14.72
2022-09-16T18:02:09.324Z,14.74
2022-09-16T18:05:07.219Z,15.16
2022-09-16T18:07:55.510Z,15.50
2022-09-16T18:10:55.039Z,15.59
2022-09-16T18:13:44.322Z,15.76
2022-09-16T18:16:33.257Z,15.58
2022-09-16T18:19:27.695Z,15.33
2022-09-16T18:22:16.099Z,15.36
2022-09-16T18:25:05.298Z,15.43
2022-09-16T18:27:54.988Z,15.20
2022-09-16T18:30:44.221Z,15.12
2022-09-16T18:33:33.061Z,15.44
2022-09-16T18:36:25.371Z,15.34
2022-09-16T18:39:15.230Z,14.83
2022-09-16T18:42:03.597Z,14.89
2022-09-16T18:44:53.207Z,14.73
2022-09-16T18:47:42.900Z,14.94
2022-09-16T18:50:31.310Z,14.90
2022-09-16T18:53:19.801Z,15.26
2022-09-16T18:56:12.616Z,14.93
2022-09-16T18:59:21.420Z,14.95
2022-09-16T19:02:14.615Z,14.28
2022-09-16T19:05:03.091Z,14.66
2022-09-16T19:07:57.529Z,14.58
2022-09-16T19:10:45.824Z,14.91
2022-09-16T19:13:34.868Z,15.04
2022-09-16T19:16:23.351Z,15.14
2022-09-16T19:19:15.619Z,15.32
2022-09-16T19:22:06.167Z,15.16
2022-09-16T19:24:54.767Z,15.30
2022-09-16T19:27:51.853Z,15.09
2022-09-16T19:30:40.242Z,15.32
2022-09-16T19:33:38.087Z,15.04
2022-09-16T19:36:29.548Z,14.99
2022-09-16T19:39:18.011Z,14.59
2022-09-16T19:42:12.217Z,14.71
2022-09-16T19:45:00.581Z,14.55
2022-09-16T19:47:48.930Z,14.37
2022-09-16T19:50:37.230Z,14.58
2022-09-16T19:53:27.415Z,14.51
2022-09-16T19:56:26.819Z,14.48
2022-09-16T19:59:15.147Z,14.34
2022-09-16T20:02:12.594Z,14.23
2022-09-16T20:05:00.857Z,14.76
2022-09-16T20:07:57.922Z,14.50
2022-09-16T20:10:47.573Z,13.92
2022-09-16T20:13:49.477Z,14.14
2022-09-16T20:16:39.538Z,14.37
2022-09-16T20:19:36.794Z,14.06
2022-09-16T20:22:25.453Z,14.05
2022-09-16T20:25:23.758Z,14.04
2022-09-16T20:28:13.674Z,13.66
2022-09-16T20:31:12.980Z,13.73
2022-09-16T20:34:01.908Z,13.83
2022-09-16T20:36:59.107Z,13.82
2022-09-16T20:39:47.411Z,13.62
2022-09-16T20:42:44.974Z,13.69
2022-09-16T20:45:36.864Z,13.56
2022-09-16T20:48:25.211Z,13.99
2022-09-16T20:51:21.465Z,14.15
2022-09-16T20:54:11.170Z,14.48
2022-09-16T20:57:06.004Z,14.03
2022-09-16T20:59:54.317Z,13.90
2022-09-16T21:02:54.073Z,13.74
2022-09-16T21:05:42.343Z,13.97
2022-09-16T21:08:40.293Z,13.94
2022-09-16T21:11:30.254Z,13.94
2022-09-16T21:14:27.543Z,13.89
2022-09-16T21:17:19.874Z,13.66
2022-09-16T21:20:10.488Z,14.02
2022-09-16T21:22:58.919Z,13.87
2022-09-16T21:25:53.144Z,13.96
2022-09-16T21:28:42.188Z,13.82
2022-09-16T21:31:38.128Z,13.88
2022-09-16T21:34:26.975Z,13.45
2022-09-16T21:37:22.776Z,13.37
2022-09-16T21:40:12.936Z,13.34
2022-09-16T21:43:07.468Z,13.58
2022-09-16T21:45:55.972Z,13.67
2022-09-16T21:48:44.546Z,13.79
2022-09-16T21:51:37.329Z,13.86
2022-09-16T21:54:28.086Z,13.58
2022-09-16T21:57:16.441Z,13.71
2022-09-16T22:00:05.646Z,13.69
2022-09-16T22:02:57.754Z,13.46
2022-09-16T22:05:52.132Z,13.22
2022-09-16T22:08:40.522Z,13.50
2022-09-16T22:11:32.025Z,12.86
2022-09-16T22:14:20.588Z,12.87
2022-09-16T22:17:08.982Z,12.91
2022-09-16T22:19:57.273Z,12.72
2022-09-16T22:22:52.003Z,12.45
2022-09-16T22:25:40.342Z,12.53
2022-09-16T22:28:36.829Z,12.52
2022-09-16T22:31:27.244Z,12.56
2022-09-16T22:34:15.979Z,12.58
2022-09-16T22:37:13.366Z,12.52
2022-09-16T22:40:01.724Z,12.47
2022-09-16T22:42:59.438Z,12.36
2022-09-16T22:45:49.851Z,12.03
2022-09-16T22:48:38.545Z,11.95
2022-09-16T22:51:33.074Z,11.72
2022-09-16T22:54:21.883Z,11.57
2022-09-16T22:57:20.146Z,11.57
2022-09-16T23:00:09.733Z,11.62
2022-09-16T23:03:05.509Z,11.91
2022-09-16T23:05:58.122Z,12.05
2022-09-16T23:08:53.701Z,12.03
2022-09-16T23:11:42.317Z,12.10
2022-09-16T23:14:37.117Z,12.12
2022-09-16T23:17:25.591Z,12.18
2022-09-16T23:20:21.313Z,12.12
2022-09-16T23:23:09.903Z,12.33
2022-09-16T23:26:05.077Z,12.22
2022-09-16T23:28:54.693Z,12.53
2022-09-16T23:31:49.195Z,12.26
2022-09-16T23:34:37.545Z,12.58
2022-09-16T23:37:33.044Z,12.36
2022-09-16T23:40:21.470Z,12.33
2022-09-16T23:43:15.873Z,12.27
2022-09-16T23:46:04.468Z,12.23
2022-09-16T23:48:53.286Z,12.49
2022-09-16T23:51:50.327Z,12.14
2022-09-16T23:54:40.030Z,12.21
2022-09-16T23:57:37.355Z,12.27
